sensor_id;sensor_type;location;lat;lon;timestamp;pressure;altitude;pressure_sealevel;temperature;humidity
18533;BME280;9396;51.510;11.934;2022-12-11T00:01:31;100074.38;;;0.98;91.75
18533;BME280;9396;51.510;11.934;2022-12-11T00:03:58;100071.91;;;1.09;92.09
18533;BME280;9396;51.510;11.934;2022-12-11T00:06:25;100074.97;;;1.16;91.74
18533;BME280;9396;51.510;11.934;2022-12-11T00:08:52;100073.50;;;1.24;92.22
18533;BME280;9396;51.510;11.934;2022-12-11T00:11:21;100063.72;;;1.01;92.33
18533;BME280;9396;51.510;11.934;2022-12-11T00:13:49;100065.91;;;1.07;91.98
18533;BME280;9396;51.510;11.934;2022-12-11T00:16:15;100072.94;;;0.94;91.23
18533;BME280;9396;51.510;11.934;2022-12-11T00:18:42;100066.75;;;0.95;91.58
18533;BME280;9396;51.510;11.934;2022-12-11T00:21:11;100066.66;;;1.09;92.20
18533;BME280;9396;51.510;11.934;2022-12-11T00:23:39;100067.84;;;1.05;92.24
18533;BME280;9396;51.510;11.934;2022-12-11T00:26:07;100060.78;;;1.05;93.13
18533;BME280;9396;51.510;11.934;2022-12-11T00:28:36;100062.69;;;1.16;92.24
18533;BME280;9396;51.510;11.934;2022-12-11T00:31:03;100070.28;;;0.81;91.34
18533;BME280;9396;51.510;11.934;2022-12-11T00:33:31;100068.97;;;1.01;90.82
18533;BME280;9396;51.510;11.934;2022-12-11T00:35:58;100072.41;;;1.01;91.17
18533;BME280;9396;51.510;11.934;2022-12-11T00:38:24;100067.31;;;0.73;90.27
18533;BME280;9396;51.510;11.934;2022-12-11T00:40:51;100069.56;;;0.92;90.97
18533;BME280;9396;51.510;11.934;2022-12-11T00:43:18;100062.81;;;1.15;89.90
18533;BME280;9396;51.510;11.934;2022-12-11T00:45:46;100055.78;;;1.02;90.56
18533;BME280;9396;51.510;11.934;2022-12-11T00:48:13;100069.50;;;1.06;90.97
18533;BME280;9396;51.510;11.934;2022-12-11T00:50:40;100072.66;;;1.11;90.78
18533;BME280;9396;51.510;11.934;2022-12-11T00:53:06;100068.22;;;0.99;89.52
18533;BME280;9396;51.510;11.934;2022-12-11T00:55:39;100064.47;;;1.03;90.21
18533;BME280;9396;51.510;11.934;2022-12-11T00:58:06;100070.13;;;1.09;90.64
18533;BME280;9396;51.510;11.934;2022-12-11T01:00:33;100064.53;;;1.01;90.66
18533;BME280;9396;51.510;11.934;2022-12-11T01:03:01;100067.28;;;1.13;90.98
18533;BME280;9396;51.510;11.934;2022-12-11T01:05:28;100066.25;;;1.15;90.52
18533;BME280;9396;51.510;11.934;2022-12-11T01:07:55;100065.75;;;1.10;91.36
18533;BME280;9396;51.510;11.934;2022-12-11T01:10:21;100069.59;;;1.04;89.89
18533;BME280;9396;51.510;11.934;2022-12-11T01:12:50;100068.88;;;1.15;89.25
18533;BME280;9396;51.510;11.934;2022-12-11T01:15:17;100070.38;;;1.19;89.75
18533;BME280;9396;51.510;11.934;2022-12-11T01:17:44;100070.63;;;1.02;91.82
18533;BME280;9396;51.510;11.934;2022-12-11T01:20:12;100070.25;;;1.08;92.20
18533;BME280;9396;51.510;11.934;2022-12-11T01:22:38;100072.44;;;1.14;91.34
18533;BME280;9396;51.510;11.934;2022-12-11T01:25:06;100063.91;;;0.98;91.40
18533;BME280;9396;51.510;11.934;2022-12-11T01:27:34;100070.78;;;0.74;91.21
18533;BME280;9396;51.510;11.934;2022-12-11T01:30:00;100013.03;;;0.50;91.44
18533;BME280;9396;51.510;11.934;2022-12-11T01:32:27;100076.59;;;0.65;90.87
18533;BME280;9396;51.510;11.934;2022-12-11T01:34:54;100071.03;;;0.30;89.79
18533;BME280;9396;51.510;11.934;2022-12-11T01:37:22;100077.13;;;0.17;90.47
18533;BME280;9396;51.510;11.934;2022-12-11T01:39:48;100080.16;;;0.11;89.48
18533;BME280;9396;51.510;11.934;2022-12-11T01:42:17;100085.19;;;0.14;89.75
18533;BME280;9396;51.510;11.934;2022-12-11T01:47:52;100078.75;;;0.05;91.33
18533;BME280;9396;51.510;11.934;2022-12-11T01:50:21;100085.28;;;0.12;91.38
18533;BME280;9396;51.510;11.934;2022-12-11T01:52:49;100088.16;;;0.08;89.72
18533;BME280;9396;51.510;11.934;2022-12-11T01:55:16;100094.25;;;-0.06;88.91
18533;BME280;9396;51.510;11.934;2022-12-11T01:57:46;100094.44;;;0.05;88.63
18533;BME280;9396;51.510;11.934;2022-12-11T02:00:15;100092.81;;;0.17;90.78
18533;BME280;9396;51.510;11.934;2022-12-11T02:02:42;100090.28;;;0.29;91.15
18533;BME280;9396;51.510;11.934;2022-12-11T02:05:09;100083.91;;;0.33;90.10
18533;BME280;9396;51.510;11.934;2022-12-11T02:07:38;100086.13;;;0.39;90.27
18533;BME280;9396;51.510;11.934;2022-12-11T02:10:09;100090.59;;;0.51;88.89
18533;BME280;9396;51.510;11.934;2022-12-11T02:12:42;100079.72;;;0.57;89.44
18533;BME280;9396;51.510;11.934;2022-12-11T02:15:18;100080.94;;;0.66;90.27
18533;BME280;9396;51.510;11.934;2022-12-11T02:17:52;100076.91;;;0.34;89.20
18533;BME280;9396;51.510;11.934;2022-12-11T02:20:24;100072.97;;;0.41;89.85
18533;BME280;9396;51.510;11.934;2022-12-11T02:26:17;100088.66;;;0.67;89.42
18533;BME280;9396;51.510;11.934;2022-12-11T02:28:49;100083.81;;;0.35;90.91
18533;BME280;9396;51.510;11.934;2022-12-11T02:31:23;100083.50;;;0.53;91.26
18533;BME280;9396;51.510;11.934;2022-12-11T02:33:57;100091.50;;;0.50;91.87
18533;BME280;9396;51.510;11.934;2022-12-11T02:36:29;100083.81;;;0.61;90.97
18533;BME280;9396;51.510;11.934;2022-12-11T02:39:00;100084.34;;;0.40;89.86
18533;BME280;9396;51.510;11.934;2022-12-11T02:41:28;100075.59;;;0.41;89.47
18533;BME280;9396;51.510;11.934;2022-12-11T02:43:57;100080.91;;;0.39;88.19
18533;BME280;9396;51.510;11.934;2022-12-11T02:46:26;100074.09;;;0.37;89.77
18533;BME280;9396;51.510;11.934;2022-12-11T02:48:54;100073.34;;;0.35;88.87
18533;BME280;9396;51.510;11.934;2022-12-11T02:51:24;100077.19;;;0.29;89.39
18533;BME280;9396;51.510;11.934;2022-12-11T02:53:56;100068.91;;;0.23;90.04
18533;BME280;9396;51.510;11.934;2022-12-11T02:56:27;100074.84;;;0.39;89.31
18533;BME280;9396;51.510;11.934;2022-12-11T02:58:59;100080.69;;;0.16;88.99
18533;BME280;9396;51.510;11.934;2022-12-11T03:01:27;100082.00;;;0.09;88.78
18533;BME280;9396;51.510;11.934;2022-12-11T03:03:54;100072.81;;;0.30;88.70
18533;BME280;9396;51.510;11.934;2022-12-11T03:06:25;100074.69;;;0.28;89.70
18533;BME280;9396;51.510;11.934;2022-12-11T03:08:53;100079.31;;;0.10;90.35
18533;BME280;9396;51.510;11.934;2022-12-11T03:11:19;100084.16;;;-0.12;89.48
18533;BME280;9396;51.510;11.934;2022-12-11T03:13:46;100068.50;;;-0.12;88.85
18533;BME280;9396;51.510;11.934;2022-12-11T03:16:21;100074.84;;;-0.02;89.33
18533;BME280;9396;51.510;11.934;2022-12-11T03:18:54;100060.25;;;0.08;87.59
18533;BME280;9396;51.510;11.934;2022-12-11T03:21:27;100061.81;;;0.25;88.69
18533;BME280;9396;51.510;11.934;2022-12-11T03:24:02;100062.84;;;0.22;86.91
18533;BME280;9396;51.510;11.934;2022-12-11T03:26:34;100047.81;;;0.12;87.00
18533;BME280;9396;51.510;11.934;2022-12-11T03:29:08;100054.19;;;0.08;86.07
18533;BME280;9396;51.510;11.934;2022-12-11T03:31:42;100049.53;;;-0.16;86.75
18533;BME280;9396;51.510;11.934;2022-12-11T03:34:15;100060.41;;;-0.22;87.81
18533;BME280;9396;51.510;11.934;2022-12-11T03:36:44;100057.41;;;-0.44;87.54
18533;BME280;9396;51.510;11.934;2022-12-11T03:39:16;100066.00;;;-0.42;88.56
18533;BME280;9396;51.510;11.934;2022-12-11T03:41:45;100059.25;;;-0.18;88.07
18533;BME280;9396;51.510;11.934;2022-12-11T03:44:14;100060.19;;;-0.05;88.46
18533;BME280;9396;51.510;11.934;2022-12-11T03:46:44;100064.16;;;0.15;87.51
18533;BME280;9396;51.510;11.934;2022-12-11T03:49:15;100055.13;;;0.07;87.66
18533;BME280;9396;51.510;11.934;2022-12-11T03:51:44;100048.16;;;0.20;87.22
18533;BME280;9396;51.510;11.934;2022-12-11T03:54:11;100048.09;;;0.21;86.05
18533;BME280;9396;51.510;11.934;2022-12-11T03:56:39;100046.50;;;-0.22;86.62
18533;BME280;9396;51.510;11.934;2022-12-11T03:59:08;100007.59;;;-0.55;87.75
18533;BME280;9396;51.510;11.934;2022-12-11T04:01:35;100063.63;;;-0.60;88.28
18533;BME280;9396;51.510;11.934;2022-12-11T04:04:03;100060.88;;;-0.57;88.99
18533;BME280;9396;51.510;11.934;2022-12-11T04:06:30;100056.09;;;-0.51;88.80
18533;BME280;9396;51.510;11.934;2022-12-11T04:08:56;100059.38;;;-0.61;88.58
18533;BME280;9396;51.510;11.934;2022-12-11T04:11:23;100056.84;;;-0.49;88.27
18533;BME280;9396;51.510;11.934;2022-12-11T04:14:03;100052.19;;;-0.58;87.98
18533;BME280;9396;51.510;11.934;2022-12-11T04:16:47;100055.16;;;-0.50;89.61
18533;BME280;9396;51.510;11.934;2022-12-11T04:19:15;100053.38;;;-0.77;88.53
18533;BME280;9396;51.510;11.934;2022-12-11T04:21:59;100054.59;;;-0.69;89.51
18533;BME280;9396;51.510;11.934;2022-12-11T04:24:52;100059.66;;;-0.38;88.26
18533;BME280;9396;51.510;11.934;2022-12-11T04:27:18;100060.47;;;-0.51;88.85
18533;BME280;9396;51.510;11.934;2022-12-11T04:29:59;100061.84;;;-0.88;89.67
18533;BME280;9396;51.510;11.934;2022-12-11T04:32:26;100057.53;;;-1.03;88.31
18533;BME280;9396;51.510;11.934;2022-12-11T04:34:54;100061.38;;;-0.94;88.17
18533;BME280;9396;51.510;11.934;2022-12-11T04:37:20;100057.31;;;-0.70;88.30
18533;BME280;9396;51.510;11.934;2022-12-11T04:39:47;100053.41;;;-0.63;87.17
18533;BME280;9396;51.510;11.934;2022-12-11T04:42:13;100046.97;;;-0.72;86.85
18533;BME280;9396;51.510;11.934;2022-12-11T04:44:40;100037.28;;;-0.56;86.43
18533;BME280;9396;51.510;11.934;2022-12-11T04:47:07;100040.63;;;-0.54;86.97
18533;BME280;9396;51.510;11.934;2022-12-11T04:49:34;100038.56;;;-0.77;87.79
18533;BME280;9396;51.510;11.934;2022-12-11T04:52:02;100032.03;;;-0.56;88.01
18533;BME280;9396;51.510;11.934;2022-12-11T04:54:29;100030.53;;;-0.60;87.64
18533;BME280;9396;51.510;11.934;2022-12-11T04:56:55;100033.44;;;-0.50;87.29
18533;BME280;9396;51.510;11.934;2022-12-11T04:59:22;100034.19;;;-0.34;87.65
18533;BME280;9396;51.510;11.934;2022-12-11T05:01:48;100038.56;;;-0.35;87.44
18533;BME280;9396;51.510;11.934;2022-12-11T05:04:15;100033.16;;;-0.46;86.66
18533;BME280;9396;51.510;11.934;2022-12-11T05:06:42;100031.50;;;-0.61;86.63
18533;BME280;9396;51.510;11.934;2022-12-11T05:09:11;100044.69;;;-0.92;87.54
18533;BME280;9396;51.510;11.934;2022-12-11T05:11:38;99975.31;;;-0.96;88.00
18533;BME280;9396;51.510;11.934;2022-12-11T05:14:05;100045.28;;;-0.59;88.63
18533;BME280;9396;51.510;11.934;2022-12-11T05:16:31;100050.69;;;-0.48;88.94
18533;BME280;9396;51.510;11.934;2022-12-11T05:18:58;100038.66;;;-0.64;88.68
18533;BME280;9396;51.510;11.934;2022-12-11T05:21:24;100043.03;;;-0.93;88.97
18533;BME280;9396;51.510;11.934;2022-12-11T05:23:53;100038.84;;;-0.67;89.15
18533;BME280;9396;51.510;11.934;2022-12-11T05:26:20;100041.53;;;-0.41;88.60
18533;BME280;9396;51.510;11.934;2022-12-11T05:28:50;100032.13;;;-0.29;88.98
18533;BME280;9396;51.510;11.934;2022-12-11T05:31:19;100032.31;;;-0.46;89.12
18533;BME280;9396;51.510;11.934;2022-12-11T05:33:46;100032.78;;;-0.54;88.81
18533;BME280;9396;51.510;11.934;2022-12-11T05:36:16;100037.47;;;-0.59;88.82
18533;BME280;9396;51.510;11.934;2022-12-11T05:38:43;100032.88;;;-0.41;89.60
18533;BME280;9396;51.510;11.934;2022-12-11T05:41:12;100030.44;;;-0.58;89.71
18533;BME280;9396;51.510;11.934;2022-12-11T05:43:41;100032.41;;;-0.48;89.63
18533;BME280;9396;51.510;11.934;2022-12-11T05:46:09;100021.59;;;-0.42;89.56
18533;BME280;9396;51.510;11.934;2022-12-11T05:48:36;100034.34;;;-0.79;90.45
18533;BME280;9396;51.510;11.934;2022-12-11T05:51:04;100030.53;;;-0.60;91.25
18533;BME280;9396;51.510;11.934;2022-12-11T05:53:31;100027.47;;;-0.80;91.40
18533;BME280;9396;51.510;11.934;2022-12-11T05:56:02;100014.53;;;-1.12;91.50
18533;BME280;9396;51.510;11.934;2022-12-11T05:58:29;100027.91;;;-1.02;92.50
18533;BME280;9396;51.510;11.934;2022-12-11T06:00:57;100020.06;;;-1.02;92.30
18533;BME280;9396;51.510;11.934;2022-12-11T06:03:24;100013.22;;;-0.75;92.57
18533;BME280;9396;51.510;11.934;2022-12-11T06:05:51;100016.28;;;-0.68;92.19
18533;BME280;9396;51.510;11.934;2022-12-11T06:08:18;100015.34;;;-0.67;91.02
18533;BME280;9396;51.510;11.934;2022-12-11T06:10:45;100014.78;;;-0.58;91.56
18533;BME280;9396;51.510;11.934;2022-12-11T06:13:12;100014.31;;;-0.65;91.65
18533;BME280;9396;51.510;11.934;2022-12-11T06:15:39;100018.78;;;-0.95;91.63
18533;BME280;9396;51.510;11.934;2022-12-11T06:18:07;100021.59;;;-0.98;92.54
18533;BME280;9396;51.510;11.934;2022-12-11T06:20:34;100029.31;;;-1.26;92.83
18533;BME280;9396;51.510;11.934;2022-12-11T06:23:01;99941.31;;;-1.66;93.26
18533;BME280;9396;51.510;11.934;2022-12-11T06:25:28;100026.41;;;-1.06;92.78
18533;BME280;9396;51.510;11.934;2022-12-11T06:27:55;100029.28;;;-1.11;92.92
18533;BME280;9396;51.510;11.934;2022-12-11T06:30:22;100026.75;;;-1.12;92.40
18533;BME280;9396;51.510;11.934;2022-12-11T06:32:48;100023.28;;;-1.27;93.20
18533;BME280;9396;51.510;11.934;2022-12-11T06:35:17;100015.22;;;-0.94;92.69
18533;BME280;9396;51.510;11.934;2022-12-11T06:37:43;100023.03;;;-1.08;92.38
18533;BME280;9396;51.510;11.934;2022-12-11T06:40:10;100019.34;;;-0.90;92.98
18533;BME280;9396;51.510;11.934;2022-12-11T06:42:37;100025.13;;;-0.85;92.65
18533;BME280;9396;51.510;11.934;2022-12-11T06:45:05;100015.06;;;-0.63;92.51
18533;BME280;9396;51.510;11.934;2022-12-11T06:47:31;100025.50;;;-0.91;91.97
18533;BME280;9396;51.510;11.934;2022-12-11T06:49:58;100020.63;;;-0.97;91.71
18533;BME280;9396;51.510;11.934;2022-12-11T06:52:26;100022.25;;;-0.66;91.33
18533;BME280;9396;51.510;11.934;2022-12-11T06:54:53;100028.50;;;-0.69;91.06
18533;BME280;9396;51.510;11.934;2022-12-11T06:57:20;100027.19;;;-0.62;90.40
18533;BME280;9396;51.510;11.934;2022-12-11T06:59:47;100031.28;;;-0.44;89.39
18533;BME280;9396;51.510;11.934;2022-12-11T07:02:16;100031.84;;;-0.39;90.71
18533;BME280;9396;51.510;11.934;2022-12-11T07:04:43;100030.50;;;-0.18;88.70
18533;BME280;9396;51.510;11.934;2022-12-11T07:07:10;100029.38;;;-0.14;89.94
18533;BME280;9396;51.510;11.934;2022-12-11T07:09:39;100028.53;;;-0.14;88.84
18533;BME280;9396;51.510;11.934;2022-12-11T07:12:06;100029.28;;;-0.12;87.83
18533;BME280;9396;51.510;11.934;2022-12-11T07:14:33;100032.56;;;-0.09;88.97
18533;BME280;9396;51.510;11.934;2022-12-11T07:17:00;100027.22;;;0.07;88.35
18533;BME280;9396;51.510;11.934;2022-12-11T07:19:26;100028.94;;;0.21;88.57
18533;BME280;9396;51.510;11.934;2022-12-11T07:21:53;100027.25;;;0.20;87.91
18533;BME280;9396;51.510;11.934;2022-12-11T07:24:20;100039.69;;;0.16;87.32
18533;BME280;9396;51.510;11.934;2022-12-11T07:26:48;100042.41;;;0.15;89.19
18533;BME280;9396;51.510;11.934;2022-12-11T07:29:14;100048.63;;;-0.43;88.65
18533;BME280;9396;51.510;11.934;2022-12-11T07:31:41;100043.22;;;-0.26;88.57
18533;BME280;9396;51.510;11.934;2022-12-11T07:34:11;100044.72;;;-0.22;89.88
18533;BME280;9396;51.510;11.934;2022-12-11T07:36:37;100045.81;;;-0.12;89.86
18533;BME280;9396;51.510;11.934;2022-12-11T07:39:04;100057.00;;;0.05;89.28
18533;BME280;9396;51.510;11.934;2022-12-11T07:41:32;100048.72;;;-0.02;89.24
18533;BME280;9396;51.510;11.934;2022-12-11T07:44:00;100046.50;;;0.19;89.60
18533;BME280;9396;51.510;11.934;2022-12-11T07:46:29;100046.34;;;0.34;88.07
18533;BME280;9396;51.510;11.934;2022-12-11T07:48:56;100053.34;;;0.48;88.77
18533;BME280;9396;51.510;11.934;2022-12-11T07:51:24;100053.72;;;0.42;88.16
18533;BME280;9396;51.510;11.934;2022-12-11T07:53:53;100050.63;;;0.49;87.61
18533;BME280;9396;51.510;11.934;2022-12-11T07:56:21;100058.50;;;0.35;86.69
18533;BME280;9396;51.510;11.934;2022-12-11T07:58:48;100053.13;;;0.51;87.63
18533;BME280;9396;51.510;11.934;2022-12-11T08:01:18;100057.91;;;0.44;85.75
18533;BME280;9396;51.510;11.934;2022-12-11T08:03:45;100039.47;;;0.33;86.54
18533;BME280;9396;51.510;11.934;2022-12-11T08:06:12;100055.09;;;0.47;87.18
18533;BME280;9396;51.510;11.934;2022-12-11T08:08:39;100057.56;;;0.63;86.88
18533;BME280;9396;51.510;11.934;2022-12-11T08:11:08;100051.25;;;0.53;86.72
18533;BME280;9396;51.510;11.934;2022-12-11T08:13:35;100062.25;;;0.58;87.26
18533;BME280;9396;51.510;11.934;2022-12-11T08:16:03;100051.25;;;0.53;86.76
18533;BME280;9396;51.510;11.934;2022-12-11T08:18:31;100053.75;;;0.54;86.80
18533;BME280;9396;51.510;11.934;2022-12-11T08:20:58;100052.00;;;0.55;86.70
18533;BME280;9396;51.510;11.934;2022-12-11T08:23:24;100050.84;;;0.59;87.39
18533;BME280;9396;51.510;11.934;2022-12-11T08:25:51;100054.00;;;0.64;86.83
18533;BME280;9396;51.510;11.934;2022-12-11T08:28:18;100052.53;;;0.60;85.93
18533;BME280;9396;51.510;11.934;2022-12-11T08:30:44;100059.03;;;0.67;86.16
18533;BME280;9396;51.510;11.934;2022-12-11T08:33:11;100050.88;;;0.71;86.21
18533;BME280;9396;51.510;11.934;2022-12-11T08:35:39;100053.34;;;0.48;86.35
18533;BME280;9396;51.510;11.934;2022-12-11T08:38:06;100051.84;;;0.44;86.70
18533;BME280;9396;51.510;11.934;2022-12-11T08:40:32;100051.34;;;0.51;86.65
18533;BME280;9396;51.510;11.934;2022-12-11T08:42:59;100045.22;;;0.38;86.87
18533;BME280;9396;51.510;11.934;2022-12-11T08:45:25;100053.09;;;-0.03;87.32
18533;BME280;9396;51.510;11.934;2022-12-11T08:47:52;100060.94;;;-0.17;88.51
18533;BME280;9396;51.510;11.934;2022-12-11T08:50:19;100057.59;;;-0.47;87.93
18533;BME280;9396;51.510;11.934;2022-12-11T08:52:47;100055.34;;;-0.53;89.01
18533;BME280;9396;51.510;11.934;2022-12-11T08:55:13;100053.19;;;-0.46;90.43
18533;BME280;9396;51.510;11.934;2022-12-11T08:57:40;100055.56;;;-0.42;90.36
18533;BME280;9396;51.510;11.934;2022-12-11T09:00:10;100055.63;;;-0.15;91.24
18533;BME280;9396;51.510;11.934;2022-12-11T09:02:37;100055.09;;;0.21;90.53
18533;BME280;9396;51.510;11.934;2022-12-11T09:05:05;100067.69;;;0.28;88.85
18533;BME280;9396;51.510;11.934;2022-12-11T09:07:33;100023.13;;;0.30;87.78
18533;BME280;9396;51.510;11.934;2022-12-11T09:10:02;100061.97;;;0.22;86.54
18533;BME280;9396;51.510;11.934;2022-12-11T09:12:29;100068.31;;;-0.09;86.97
18533;BME280;9396;51.510;11.934;2022-12-11T09:14:56;100063.00;;;-0.22;88.73
18533;BME280;9396;51.510;11.934;2022-12-11T09:17:22;100048.81;;;-0.46;88.48
18533;BME280;9396;51.510;11.934;2022-12-11T09:19:49;100067.94;;;-0.31;87.04
18533;BME280;9396;51.510;11.934;2022-12-11T09:22:16;100054.78;;;-0.16;86.62
18533;BME280;9396;51.510;11.934;2022-12-11T09:24:42;100064.50;;;-0.32;86.64
18533;BME280;9396;51.510;11.934;2022-12-11T09:27:12;100066.34;;;-0.34;87.06
18533;BME280;9396;51.510;11.934;2022-12-11T09:29:38;100069.25;;;-0.10;85.10
18533;BME280;9396;51.510;11.934;2022-12-11T09:32:05;100071.19;;;0.00;85.04
18533;BME280;9396;51.510;11.934;2022-12-11T09:34:32;100068.38;;;-0.11;85.36
18533;BME280;9396;51.510;11.934;2022-12-11T09:36:59;100063.16;;;-0.11;85.51
18533;BME280;9396;51.510;11.934;2022-12-11T09:39:25;100059.81;;;-0.27;86.06
18533;BME280;9396;51.510;11.934;2022-12-11T09:41:57;100063.09;;;-0.37;86.53
18533;BME280;9396;51.510;11.934;2022-12-11T09:44:34;100066.84;;;-0.55;86.97
18533;BME280;9396;51.510;11.934;2022-12-11T09:47:15;100062.94;;;-0.34;89.20
18533;BME280;9396;51.510;11.934;2022-12-11T09:49:44;100063.09;;;-0.09;87.90
18533;BME280;9396;51.510;11.934;2022-12-11T09:52:14;100068.44;;;0.16;87.85
18533;BME280;9396;51.510;11.934;2022-12-11T09:54:47;100047.94;;;0.37;86.68
18533;BME280;9396;51.510;11.934;2022-12-11T09:57:23;100057.00;;;0.05;85.73
18533;BME280;9396;51.510;11.934;2022-12-11T10:00:03;100047.72;;;0.13;86.02
18533;BME280;9396;51.510;11.934;2022-12-11T10:02:44;100046.63;;;0.44;85.53
18533;BME280;9396;51.510;11.934;2022-12-11T10:05:17;100043.53;;;0.11;85.72
18533;BME280;9396;51.510;11.934;2022-12-11T10:07:49;100036.34;;;0.14;86.39
18533;BME280;9396;51.510;11.934;2022-12-11T10:10:24;100048.22;;;-0.09;86.94
18533;BME280;9396;51.510;11.934;2022-12-11T10:13:02;100044.44;;;-0.31;85.44
18533;BME280;9396;51.510;11.934;2022-12-11T10:15:36;100037.38;;;-0.43;87.34
18533;BME280;9396;51.510;11.934;2022-12-11T10:18:10;100033.78;;;-0.14;85.90
18533;BME280;9396;51.510;11.934;2022-12-11T10:20:38;100026.94;;;-0.03;86.72
18533;BME280;9396;51.510;11.934;2022-12-11T10:23:08;100035.94;;;-0.21;86.15
18533;BME280;9396;51.510;11.934;2022-12-11T10:25:43;100035.53;;;-0.01;86.63
18533;BME280;9396;51.510;11.934;2022-12-11T10:28:12;100030.22;;;0.01;87.67
18533;BME280;9396;51.510;11.934;2022-12-11T10:30:46;100025.94;;;0.00;88.58
18533;BME280;9396;51.510;11.934;2022-12-11T10:33:18;100040.03;;;-0.17;87.47
18533;BME280;9396;51.510;11.934;2022-12-11T10:35:49;100036.94;;;-0.23;87.24
18533;BME280;9396;51.510;11.934;2022-12-11T10:38:20;100024.22;;;-0.01;86.93
18533;BME280;9396;51.510;11.934;2022-12-11T10:40:50;100031.47;;;-0.19;86.88
18533;BME280;9396;51.510;11.934;2022-12-11T10:43:17;100038.88;;;-0.39;87.42
18533;BME280;9396;51.510;11.934;2022-12-11T10:45:53;100036.22;;;-0.25;87.88
18533;BME280;9396;51.510;11.934;2022-12-11T10:48:20;100029.78;;;-0.20;89.71
18533;BME280;9396;51.510;11.934;2022-12-11T10:50:56;100031.00;;;-0.25;89.90
18533;BME280;9396;51.510;11.934;2022-12-11T10:53:23;100026.97;;;-0.17;91.64
18533;BME280;9396;51.510;11.934;2022-12-11T10:55:51;100036.84;;;-0.08;91.33
18533;BME280;9396;51.510;11.934;2022-12-11T10:58:20;100022.38;;;0.01;90.54
18533;BME280;9396;51.510;11.934;2022-12-11T11:01:01;100014.19;;;0.20;89.48
18533;BME280;9396;51.510;11.934;2022-12-11T11:03:29;100018.31;;;0.36;88.40
18533;BME280;9396;51.510;11.934;2022-12-11T11:06:03;100006.59;;;0.29;87.58
18533;BME280;9396;51.510;11.934;2022-12-11T11:08:37;100018.97;;;-0.28;88.85
18533;BME280;9396;51.510;11.934;2022-12-11T11:11:05;100010.88;;;0.04;88.45
18533;BME280;9396;51.510;11.934;2022-12-11T11:13:33;99932.84;;;-0.84;88.90
18533;BME280;9396;51.510;11.934;2022-12-11T11:16:03;100011.50;;;-0.20;89.89
18533;BME280;9396;51.510;11.934;2022-12-11T11:18:31;100002.94;;;-0.36;90.57
18533;BME280;9396;51.510;11.934;2022-12-11T11:20:58;99993.31;;;0.06;90.60
18533;BME280;9396;51.510;11.934;2022-12-11T11:23:26;99914.66;;;-0.31;89.76
18533;BME280;9396;51.510;11.934;2022-12-11T11:25:55;99988.06;;;0.06;87.83
18533;BME280;9396;51.510;11.934;2022-12-11T11:28:24;99983.91;;;0.30;89.10
18533;BME280;9396;51.510;11.934;2022-12-11T11:31:02;99972.06;;;0.24;87.23
18533;BME280;9396;51.510;11.934;2022-12-11T11:33:30;99904.16;;;-0.43;89.45
18533;BME280;9396;51.510;11.934;2022-12-11T11:36:00;99981.13;;;0.19;88.72
18533;BME280;9396;51.510;11.934;2022-12-11T11:38:29;99976.16;;;0.28;87.72
18533;BME280;9396;51.510;11.934;2022-12-11T11:41:04;99960.69;;;0.38;86.85
18533;BME280;9396;51.510;11.934;2022-12-11T11:43:36;99975.50;;;0.51;86.52
18533;BME280;9396;51.510;11.934;2022-12-11T11:46:11;99905.03;;;-0.04;88.02
18533;BME280;9396;51.510;11.934;2022-12-11T11:48:45;99967.47;;;0.28;88.27
18533;BME280;9396;51.510;11.934;2022-12-11T11:51:22;99967.84;;;0.22;88.86
18533;BME280;9396;51.510;11.934;2022-12-11T11:53:53;99968.97;;;0.05;88.87
18533;BME280;9396;51.510;11.934;2022-12-11T11:56:22;99970.09;;;0.01;88.86
18533;BME280;9396;51.510;11.934;2022-12-11T11:59:00;99968.47;;;-0.28;87.78
18533;BME280;9396;51.510;11.934;2022-12-11T12:01:30;99969.44;;;-0.29;87.34
18533;BME280;9396;51.510;11.934;2022-12-11T12:03:57;99972.25;;;-0.06;87.99
18533;BME280;9396;51.510;11.934;2022-12-11T12:06:32;99970.47;;;-0.05;88.55
18533;BME280;9396;51.510;11.934;2022-12-11T12:09:06;99966.38;;;-0.36;88.15
18533;BME280;9396;51.510;11.934;2022-12-11T12:11:45;99974.69;;;-0.43;88.53
18533;BME280;9396;51.510;11.934;2022-12-11T12:14:19;99970.84;;;-0.38;90.57
18533;BME280;9396;51.510;11.934;2022-12-11T12:16:58;99963.91;;;-0.25;89.16
18533;BME280;9396;51.510;11.934;2022-12-11T12:19:42;99962.19;;;-0.12;87.79
18533;BME280;9396;51.510;11.934;2022-12-11T12:22:21;99972.13;;;-0.31;86.54
18533;BME280;9396;51.510;11.934;2022-12-11T12:25:00;99968.84;;;-0.20;87.82
18533;BME280;9396;51.510;11.934;2022-12-11T12:27:32;99967.38;;;0.03;87.19
18533;BME280;9396;51.510;11.934;2022-12-11T12:30:04;99957.13;;;-0.01;87.50
18533;BME280;9396;51.510;11.934;2022-12-11T12:32:40;99966.13;;;0.08;88.17
18533;BME280;9396;51.510;11.934;2022-12-11T12:35:23;99960.06;;;0.08;87.22
18533;BME280;9396;51.510;11.934;2022-12-11T12:37:56;99953.97;;;0.21;87.50
18533;BME280;9396;51.510;11.934;2022-12-11T12:40:29;99966.44;;;0.04;86.77
18533;BME280;9396;51.510;11.934;2022-12-11T12:43:04;99962.63;;;-0.05;89.92
18533;BME280;9396;51.510;11.934;2022-12-11T12:45:36;99961.13;;;0.05;88.17
18533;BME280;9396;51.510;11.934;2022-12-11T12:48:08;99958.00;;;0.13;87.95
18533;BME280;9396;51.510;11.934;2022-12-11T12:50:37;99953.38;;;0.04;87.90
18533;BME280;9396;51.510;11.934;2022-12-11T12:53:06;99947.63;;;0.11;88.28
18533;BME280;9396;51.510;11.934;2022-12-11T12:55:35;99955.25;;;0.02;88.29
18533;BME280;9396;51.510;11.934;2022-12-11T12:58:04;99949.72;;;0.06;88.22
18533;BME280;9396;51.510;11.934;2022-12-11T13:00:33;99950.72;;;-0.23;88.06
18533;BME280;9396;51.510;11.934;2022-12-11T13:03:02;99942.41;;;-0.16;90.63
18533;BME280;9396;51.510;11.934;2022-12-11T13:05:40;99932.94;;;0.23;89.93
18533;BME280;9396;51.510;11.934;2022-12-11T13:08:09;99928.25;;;0.01;89.97
18533;BME280;9396;51.510;11.934;2022-12-11T13:10:38;99919.75;;;0.24;88.66
18533;BME280;9396;51.510;11.934;2022-12-11T13:13:30;99914.50;;;0.12;87.53
18533;BME280;9396;51.510;11.934;2022-12-11T13:16:06;99920.72;;;-0.04;89.63